Terminal Aerodrome Forecast
Issued by NWS Central Illinois

Home | Current Version | Previous Version | Text Only | Print | Product List | Glossary On
Versions: 1 2 3 4 5 6 7 8 9 10 11 12 13 14 15 16 17 18 19 20 21 22 23 24 25 26 27 28 29 30
737
FTUS43 KILX 301134
TAFSPI
TAF
KSPI 301134Z 3012/0112 10012KT 2SM -SHRA BR OVC007
     FM301400 09016G24KT 3SM -SHRA BR OVC007
     FM301700 09011KT 5SM -SHRA BR VCTS OVC007CB
     FM302300 05010KT 5SM BR VCSH OVC007=

USA.gov is the U.S. government's official web portal to all federal, state and local government web resources and services.